createdAt,value
2022-09-07T00:00:35.738Z,87.23
2022-09-07T00:03:09.141Z,86.79
2022-09-07T00:05:47.044Z,87.45
2022-09-07T00:08:24.378Z,87.67
2022-09-07T00:11:05.001Z,87.63
2022-09-07T00:13:39.742Z,88.42
2022-09-07T00:16:22.410Z,88.26
2022-09-07T00:18:57.040Z,88.71
2022-09-07T00:21:29.847Z,88.77
2022-09-07T00:24:02.512Z,89.03
2022-09-07T00:26:35.351Z,88.80
2022-09-07T00:29:07.973Z,88.96
2022-09-07T00:31:40.535Z,89.46
2022-09-07T00:34:13.005Z,89.56
2022-09-07T00:36:45.501Z,89.46
2022-09-07T00:39:18.232Z,89.59
2022-09-07T00:41:50.668Z,89.72
2022-09-07T00:45:00.537Z,90.12
2022-09-07T00:48:11.115Z,90.30
2022-09-07T00:50:48.837Z,90.16
2022-09-07T00:53:34.657Z,90.12
2022-09-07T00:56:08.146Z,90.15
2022-09-07T00:58:43.635Z,90.10
2022-09-07T01:01:17.232Z,90.30
2022-09-07T01:03:52.131Z,90.23
2022-09-07T01:06:36.075Z,90.20
2022-09-07T01:09:12.929Z,90.21
2022-09-07T01:11:50.691Z,90.53
2022-09-07T01:14:28.919Z,90.46
2022-09-07T01:17:26.101Z,90.66
2022-09-07T01:20:17.544Z,90.71
2022-09-07T01:23:21.700Z,90.85
2022-09-07T01:26:28.621Z,90.95
2022-09-07T01:29:17.980Z,91.35
2022-09-07T01:32:10.198Z,91.37
2022-09-07T01:34:46.567Z,91.75
2022-09-07T01:37:50.037Z,91.52
2022-09-07T01:40:39.013Z,91.70
2022-09-07T01:43:21.470Z,91.71
2022-09-07T01:45:57.139Z,91.76
2022-09-07T01:48:33.770Z,91.41
2022-09-07T01:51:12.232Z,91.90
2022-09-07T01:53:52.920Z,91.76
2022-09-07T01:56:38.038Z,91.75
2022-09-07T01:59:20.304Z,91.83
2022-09-07T02:02:03.318Z,91.93
2022-09-07T02:04:57.151Z,92.11
2022-09-07T02:07:43.721Z,92.20
2022-09-07T02:10:37.970Z,92.38
2022-09-07T02:13:24.035Z,92.49
2022-09-07T02:16:19.361Z,92.47
2022-09-07T02:18:59.144Z,92.51
2022-09-07T02:21:37.653Z,92.75
2022-09-07T02:24:26.309Z,92.65
2022-09-07T02:27:00.959Z,92.79
2022-09-07T02:29:33.471Z,92.78
2022-09-07T02:32:06.173Z,93.02
2022-09-07T02:34:38.750Z,93.10
2022-09-07T02:37:13.862Z,93.22
2022-09-07T02:39:47.816Z,93.26
2022-09-07T02:42:20.420Z,93.32
2022-09-07T02:44:53.485Z,93.58
2022-09-07T02:47:35.012Z,93.52
2022-09-07T02:50:26.289Z,93.43
2022-09-07T02:53:17.450Z,93.43
2022-09-07T02:56:07.625Z,93.56
2022-09-07T02:58:39.983Z,93.67
2022-09-07T03:01:40.371Z,93.92
2022-09-07T03:04:28.616Z,93.96
2022-09-07T03:07:26.087Z,94.15
2022-09-07T03:10:01.764Z,94.60
2022-09-07T03:12:48.031Z,94.49
2022-09-07T03:15:23.650Z,94.30
2022-09-07T03:17:56.230Z,94.38
2022-09-07T03:20:28.685Z,94.25
2022-09-07T03:23:01.101Z,94.36
2022-09-07T03:25:33.584Z,94.06
2022-09-07T03:28:06.569Z,94.00
2022-09-07T03:30:43.962Z,94.22
2022-09-07T03:33:17.246Z,94.12
2022-09-07T03:35:59.074Z,94.18
2022-09-07T03:38:31.603Z,94.11
2022-09-07T03:41:06.519Z,93.93
2022-09-07T03:43:38.934Z,93.65
2022-09-07T03:46:11.589Z,93.61
2022-09-07T03:48:44.147Z,93.31
2022-09-07T03:51:18.293Z,93.02
2022-09-07T03:53:51.304Z,92.60
2022-09-07T03:56:24.915Z,92.54
2022-09-07T03:58:57.460Z,92.63
2022-09-07T04:01:30.097Z,92.50
2022-09-07T04:04:02.832Z,92.33
2022-09-07T04:06:35.398Z,92.33
2022-09-07T04:09:11.768Z,92.23
2022-09-07T04:11:44.223Z,92.28
2022-09-07T04:14:16.721Z,92.10
2022-09-07T04:16:49.566Z,92.45
2022-09-07T04:19:22.419Z,92.54
2022-09-07T04:21:54.838Z,92.51
2022-09-07T04:24:27.433Z,92.43
2022-09-07T04:27:00.218Z,92.38
2022-09-07T04:29:32.674Z,92.42
2022-09-07T04:32:05.199Z,92.65
2022-09-07T04:34:37.608Z,92.37
2022-09-07T04:37:10.034Z,92.14
2022-09-07T04:39:42.633Z,92.43
2022-09-07T04:42:15.120Z,92.31
2022-09-07T04:44:50.595Z,92.32
2022-09-07T04:47:23.431Z,92.25
2022-09-07T04:49:55.937Z,92.19
2022-09-07T04:52:28.354Z,92.20
2022-09-07T04:55:00.757Z,92.09
2022-09-07T04:57:33.189Z,91.95
2022-09-07T05:00:12.974Z,92.13
2022-09-07T05:02:45.484Z,92.12
2022-09-07T05:05:18.008Z,91.95
2022-09-07T05:07:50.418Z,92.02
2022-09-07T05:10:22.876Z,91.63
2022-09-07T05:12:55.293Z,91.51
2022-09-07T05:15:30.610Z,91.32
2022-09-07T05:18:03.581Z,91.11
2022-09-07T05:20:36.018Z,91.19
2022-09-07T05:23:08.776Z,91.37
2022-09-07T05:25:45.020Z,91.47
2022-09-07T05:28:19.538Z,91.56
2022-09-07T05:36:46.080Z,91.80
2022-09-07T05:39:20.984Z,91.83
2022-09-07T05:41:53.973Z,92.21
2022-09-07T05:47:14.624Z,91.96
2022-09-07T05:49:47.047Z,91.88
2022-09-07T05:52:19.489Z,91.59
2022-09-07T05:54:54.330Z,91.83
2022-09-07T05:57:29.062Z,91.82
2022-09-07T06:00:01.792Z,91.83
2022-09-07T06:02:39.509Z,91.74
2022-09-07T06:05:12.356Z,91.99
2022-09-07T06:07:48.063Z,91.93
2022-09-07T06:13:12.990Z,91.89
2022-09-07T06:15:45.688Z,91.94
2022-09-07T06:18:18.338Z,91.79
2022-09-07T06:20:50.755Z,91.84
2022-09-07T06:23:23.182Z,92.01
2022-09-07T06:25:55.585Z,92.00
2022-09-07T06:28:39.438Z,92.00
2022-09-07T06:31:14.361Z,91.99
2022-09-07T06:33:47.786Z,91.69
2022-09-07T06:36:22.748Z,91.46
2022-09-07T06:38:58.949Z,91.21
2022-09-07T06:44:24.020Z,90.55
2022-09-07T06:47:04.205Z,90.28
2022-09-07T06:49:37.209Z,90.24
2022-09-07T06:52:09.689Z,90.27
2022-09-07T06:57:30.620Z,89.67
2022-09-07T07:00:03.744Z,88.94
2022-09-07T07:02:36.277Z,88.72
2022-09-07T07:05:09.161Z,88.89
2022-09-07T07:07:41.561Z,89.35
2022-09-07T07:10:14.000Z,88.32
2022-09-07T07:12:46.470Z,88.02
2022-09-07T07:15:19.043Z,87.75
2022-09-07T07:17:58.198Z,87.22
2022-09-07T07:20:35.529Z,86.45
2022-09-07T07:23:08.304Z,86.29
2022-09-07T07:25:40.750Z,85.15
2022-09-07T07:31:09.889Z,84.99
2022-09-07T07:33:48.282Z,84.42
2022-09-07T07:36:22.850Z,84.44
2022-09-07T07:44:23.797Z,83.27
2022-09-07T07:46:56.236Z,83.35
2022-09-07T07:49:28.670Z,83.39
2022-09-07T07:54:53.400Z,82.75
2022-09-07T07:57:25.931Z,82.11
2022-09-07T07:59:58.575Z,82.22
2022-09-07T08:02:31.130Z,82.13
2022-09-07T08:05:03.713Z,82.53
2022-09-07T08:07:36.254Z,82.47
2022-09-07T08:10:10.114Z,82.60
2022-09-07T08:12:42.771Z,82.91
2022-09-07T08:15:15.149Z,82.92
2022-09-07T08:17:48.134Z,82.71
2022-09-07T08:20:21.007Z,82.39
2022-09-07T08:22:53.372Z,82.01
2022-09-07T08:25:25.748Z,81.53
2022-09-07T08:27:58.117Z,81.62
2022-09-07T08:30:30.841Z,81.68
2022-09-07T08:33:03.271Z,81.36
2022-09-07T08:35:35.810Z,81.23
2022-09-07T08:38:08.260Z,80.59
2022-09-07T08:40:40.735Z,79.40
2022-09-07T08:43:27.306Z,78.74
2022-09-07T08:46:06.649Z,78.44
2022-09-07T08:48:40.201Z,78.25
2022-09-07T08:51:22.334Z,77.61
2022-09-07T08:53:56.838Z,77.02
2022-09-07T08:57:20.622Z,77.10
2022-09-07T08:59:42.893Z,76.63
2022-09-07T09:05:37.025Z,75.88
2022-09-07T09:06:11.217Z,75.38
2022-09-07T09:08:15.322Z,75.91
2022-09-07T09:10:50.925Z,74.25
2022-09-07T09:13:58.282Z,72.18
2022-09-07T09:16:38.096Z,72.14
2022-09-07T09:19:23.823Z,71.71
2022-09-07T09:22:28.327Z,71.18
2022-09-07T09:25:07.228Z,69.84
2022-09-07T09:27:39.750Z,69.33
2022-09-07T09:30:17.787Z,68.53
2022-09-07T09:33:13.564Z,68.06
2022-09-07T09:35:51.316Z,68.49
2022-09-07T09:38:34.933Z,65.62
2022-09-07T09:41:10.097Z,64.96
2022-09-07T09:43:48.188Z,64.88
2022-09-07T09:46:23.417Z,63.96
2022-09-07T09:49:01.236Z,64.20
2022-09-07T09:54:44.763Z,62.10
2022-09-07T09:57:38.123Z,62.59
2022-09-07T10:00:23.662Z,61.09
2022-09-07T10:06:07.419Z,61.58
2022-09-07T10:08:40.364Z,60.38
2022-09-07T10:11:14.116Z,59.14
2022-09-07T10:13:57.773Z,59.66
2022-09-07T10:16:42.780Z,59.99
2022-09-07T10:19:29.678Z,59.26
2022-09-07T10:22:36.404Z,58.35
2022-09-07T10:25:45.213Z,57.85
2022-09-07T10:28:23.894Z,57.91
2022-09-07T10:31:21.182Z,58.46
2022-09-07T10:37:04.801Z,57.99
2022-09-07T10:40:02.230Z,58.13
2022-09-07T10:43:20.547Z,57.10
2022-09-07T10:46:02.519Z,56.84
2022-09-07T10:48:43.105Z,57.02
2022-09-07T10:51:32.096Z,56.42
2022-09-07T10:54:36.246Z,55.61
2022-09-07T10:57:27.779Z,54.97
2022-09-07T11:00:12.944Z,55.38
2022-09-07T11:06:20.070Z,54.71
2022-09-07T11:09:21.962Z,55.07
2022-09-07T11:12:01.949Z,54.17
2022-09-07T11:14:44.483Z,53.21
2022-09-07T11:17:28.921Z,52.46
2022-09-07T11:20:12.717Z,54.26
2022-09-07T11:22:57.521Z,53.53
2022-09-07T11:25:47.217Z,53.74
2022-09-07T11:28:34.669Z,52.99
2022-09-07T11:31:22.041Z,52.71
2022-09-07T11:34:25.261Z,52.44
2022-09-07T11:37:11.699Z,52.58
2022-09-07T11:39:58.663Z,53.29
2022-09-07T11:42:43.527Z,50.65
2022-09-07T11:45:16.288Z,50.30
2022-09-07T11:48:01.788Z,49.94
2022-09-07T11:50:39.319Z,49.43
2022-09-07T11:53:22.449Z,51.02
2022-09-07T11:55:59.950Z,50.34
2022-09-07T11:58:56.255Z,50.22
2022-09-07T12:02:06.241Z,49.15
2022-09-07T12:04:56.738Z,46.92
2022-09-07T12:07:44.124Z,47.20
2022-09-07T12:10:54.447Z,48.03
2022-09-07T12:13:38.840Z,45.68
2022-09-07T12:16:39.399Z,45.77
2022-09-07T12:19:18.230Z,45.74
2022-09-07T12:21:53.378Z,43.12
2022-09-07T12:24:32.343Z,44.37
2022-09-07T12:27:20.077Z,43.07
2022-09-07T12:29:59.424Z,43.98
2022-09-07T12:32:55.769Z,45.46
2022-09-07T12:35:42.647Z,45.43
2022-09-07T12:38:18.107Z,45.20
2022-09-07T12:41:02.385Z,45.97
2022-09-07T12:43:43.618Z,46.10
2022-09-07T12:46:35.428Z,45.57
2022-09-07T12:49:26.612Z,45.94
2022-09-07T12:52:46.967Z,43.66
2022-09-07T12:55:28.284Z,44.04
2022-09-07T12:58:20.677Z,44.35
2022-09-07T13:01:13.353Z,43.68
2022-09-07T13:04:23.089Z,43.91
2022-09-07T13:07:13.860Z,43.89
2022-09-07T13:10:16.676Z,45.64
2022-09-07T13:12:55.265Z,44.44
2022-09-07T13:15:38.901Z,43.49
2022-09-07T13:18:29.647Z,46.97
2022-09-07T13:21:08.095Z,48.03
2022-09-07T13:23:48.845Z,44.43
2022-09-07T13:27:05.614Z,41.46
2022-09-07T13:29:40.831Z,44.03
2022-09-07T13:33:07.919Z,42.09
2022-09-07T13:35:24.401Z,41.70
2022-09-07T13:38:00.628Z,41.53
2022-09-07T13:40:45.149Z,43.16
2022-09-07T13:43:23.469Z,42.00
2022-09-07T13:46:01.454Z,41.33
2022-09-07T13:48:49.486Z,42.41
2022-09-07T13:51:31.740Z,46.11
2022-09-07T13:54:19.340Z,41.75
2022-09-07T13:57:01.470Z,43.52
2022-09-07T13:59:35.157Z,42.57
2022-09-07T14:02:22.795Z,40.95
2022-09-07T14:04:56.567Z,41.35
2022-09-07T14:07:31.180Z,42.09
2022-09-07T14:10:09.483Z,42.06
2022-09-07T14:12:54.288Z,41.50
2022-09-07T14:15:37.024Z,41.66
2022-09-07T14:18:14.991Z,41.95
2022-09-07T14:20:52.967Z,42.25
2022-09-07T14:23:30.843Z,43.11
2022-09-07T14:26:23.081Z,42.03
2022-09-07T14:28:57.623Z,41.66
2022-09-07T14:31:31.176Z,41.64
2022-09-07T14:34:03.914Z,43.16
2022-09-07T14:36:45.221Z,42.12
2022-09-07T14:39:22.244Z,42.79
2022-09-07T14:41:55.448Z,43.08
2022-09-07T14:44:31.640Z,43.48
2022-09-07T14:47:11.600Z,42.62
2022-09-07T14:49:50.873Z,43.32
2022-09-07T14:52:34.928Z,42.94
2022-09-07T14:55:28.652Z,42.54
2022-09-07T14:58:13.002Z,44.02
2022-09-07T15:01:37.023Z,43.72
2022-09-07T15:03:39.836Z,43.67
2022-09-07T15:07:00.890Z,43.98
2022-09-07T15:09:07.057Z,43.98
2022-09-07T15:11:39.537Z,42.93
2022-09-07T15:14:20.205Z,43.21
2022-09-07T15:19:53.138Z,41.82
2022-09-07T15:22:25.492Z,42.36
2022-09-07T15:24:57.842Z,43.19
2022-09-07T15:27:30.402Z,43.29
2022-09-07T15:30:02.775Z,41.79
2022-09-07T15:32:35.396Z,42.57
2022-09-07T15:35:08.895Z,42.49
2022-09-07T15:40:58.081Z,42.47
2022-09-07T15:43:37.594Z,42.33
2022-09-07T15:46:10.550Z,43.62
2022-09-07T15:48:53.529Z,43.00
2022-09-07T15:54:20.699Z,43.37
2022-09-07T15:59:46.071Z,44.67
2022-09-07T16:05:10.980Z,44.43
2022-09-07T16:10:36.268Z,43.77
2022-09-07T16:13:11.393Z,44.10
2022-09-07T16:15:48.863Z,44.88
2022-09-07T16:18:21.328Z,43.57
2022-09-07T16:20:53.732Z,44.85
2022-09-07T16:23:26.228Z,44.98
2022-09-07T16:26:01.535Z,44.71
2022-09-07T16:28:35.463Z,45.34
2022-09-07T16:31:11.998Z,45.18
2022-09-07T16:33:44.618Z,45.56
2022-09-07T16:36:17.712Z,46.06
2022-09-07T16:38:58.973Z,45.25
2022-09-07T16:41:33.269Z,45.80
2022-09-07T16:44:05.836Z,46.94
2022-09-07T16:46:38.459Z,44.36
2022-09-07T16:49:11.784Z,45.25
2022-09-07T16:51:45.656Z,45.88
2022-09-07T16:54:18.105Z,44.71
2022-09-07T16:56:52.476Z,43.06
2022-09-07T16:59:26.699Z,44.74
2022-09-07T17:01:59.179Z,44.80
2022-09-07T17:04:31.665Z,44.27
2022-09-07T17:07:04.150Z,44.33
2022-09-07T17:09:36.876Z,45.76
2022-09-07T17:12:12.323Z,46.06
2022-09-07T17:14:44.676Z,47.23
2022-09-07T17:17:18.561Z,47.68
2022-09-07T17:19:52.905Z,48.23
2022-09-07T17:22:26.380Z,49.12
2022-09-07T17:24:58.768Z,49.45
2022-09-07T17:27:31.765Z,50.07
2022-09-07T17:30:06.745Z,50.84
2022-09-07T17:32:39.515Z,51.31
2022-09-07T17:35:11.973Z,51.55
2022-09-07T17:37:44.314Z,52.03
2022-09-07T17:40:17.165Z,52.58
2022-09-07T17:45:41.999Z,53.02
2022-09-07T17:48:14.592Z,53.52
2022-09-07T17:50:46.957Z,54.11
2022-09-07T17:53:19.329Z,54.37
2022-09-07T17:55:51.783Z,54.86
2022-09-07T17:58:24.573Z,55.28
2022-09-07T18:01:05.906Z,55.46
2022-09-07T18:03:38.665Z,55.66
2022-09-07T18:06:11.884Z,56.24
2022-09-07T18:08:44.289Z,56.24
2022-09-07T18:14:13.468Z,57.24
2022-09-07T18:16:49.374Z,58.15
2022-09-07T18:19:22.684Z,57.96
2022-09-07T18:21:55.095Z,58.34
2022-09-07T18:24:28.057Z,58.16
2022-09-07T18:27:01.177Z,59.23
2022-09-07T18:29:34.516Z,59.50
2022-09-07T18:32:09.182Z,59.98
2022-09-07T18:34:44.799Z,60.28
2022-09-07T18:37:19.655Z,61.10
2022-09-07T18:39:52.272Z,60.95
2022-09-07T18:42:24.718Z,61.43
2022-09-07T18:47:49.636Z,62.80
2022-09-07T18:50:23.195Z,63.08
2022-09-07T18:53:04.125Z,63.78
2022-09-07T18:55:40.539Z,64.02
2022-09-07T18:58:15.171Z,63.83
2022-09-07T19:00:49.991Z,64.05
2022-09-07T19:03:22.415Z,64.30
2022-09-07T19:06:03.673Z,64.80
2022-09-07T19:08:38.056Z,65.13
2022-09-07T19:11:11.677Z,65.14
2022-09-07T19:13:44.965Z,64.90
2022-09-07T19:16:19.219Z,65.10
2022-09-07T19:18:57.825Z,65.09
2022-09-07T19:21:32.569Z,65.21
2022-09-07T19:24:12.748Z,65.57
2022-09-07T19:26:47.765Z,65.18
2022-09-07T19:29:21.411Z,64.86
2022-09-07T19:32:07.444Z,64.42
2022-09-07T19:34:42.590Z,64.88
2022-09-07T19:37:14.956Z,64.68
2022-09-07T19:39:49.133Z,64.28
2022-09-07T19:42:22.415Z,64.79
2022-09-07T19:44:54.860Z,64.54
2022-09-07T19:47:27.270Z,63.92
2022-09-07T19:49:59.692Z,64.36
2022-09-07T19:52:32.677Z,64.30
2022-09-07T19:55:05.673Z,64.62
2022-09-07T19:57:38.089Z,64.57
2022-09-07T20:00:11.376Z,64.38
2022-09-07T20:02:43.733Z,64.70
2022-09-07T20:05:17.716Z,64.91
2022-09-07T20:07:50.333Z,65.82
2022-09-07T20:10:23.087Z,65.71
2022-09-07T20:12:55.449Z,65.67
2022-09-07T20:15:28.039Z,65.50
2022-09-07T20:18:00.617Z,66.03
2022-09-07T20:20:34.424Z,66.61
2022-09-07T20:23:07.831Z,66.62
2022-09-07T20:25:40.367Z,66.89
2022-09-07T20:28:13.862Z,66.01
2022-09-07T20:30:46.275Z,65.66
2022-09-07T20:33:19.245Z,66.47
2022-09-07T20:35:51.654Z,66.33
2022-09-07T20:38:23.983Z,66.71
2022-09-07T20:40:58.643Z,66.91
2022-09-07T20:43:31.081Z,67.32
2022-09-07T20:46:03.457Z,67.37
2022-09-07T20:48:37.272Z,67.34
2022-09-07T20:51:13.432Z,67.84
2022-09-07T20:53:46.736Z,68.22
2022-09-07T20:56:21.545Z,68.35
2022-09-07T20:59:02.407Z,68.40
2022-09-07T21:01:35.181Z,68.21
2022-09-07T21:04:07.859Z,68.29
2022-09-07T21:06:40.401Z,68.04
2022-09-07T21:09:12.791Z,67.86
2022-09-07T21:11:49.295Z,68.27
2022-09-07T21:14:22.850Z,67.95
2022-09-07T21:16:55.251Z,67.99
2022-09-07T21:19:27.684Z,68.21
2022-09-07T21:22:00.025Z,68.73
2022-09-07T21:24:32.397Z,69.30
2022-09-07T21:27:04.786Z,69.73
2022-09-07T21:29:37.158Z,70.06
2022-09-07T21:32:09.512Z,70.49
2022-09-07T21:34:41.868Z,70.83
2022-09-07T21:37:14.199Z,70.94
2022-09-07T21:39:46.634Z,70.65
2022-09-07T21:42:19.335Z,70.51
2022-09-07T21:44:51.665Z,70.45
2022-09-07T21:47:24.631Z,70.51
2022-09-07T21:49:57.044Z,70.37
2022-09-07T21:52:29.431Z,70.62
2022-09-07T21:55:01.840Z,71.29
2022-09-07T21:57:34.244Z,71.15
2022-09-07T22:00:08.810Z,69.55
2022-09-07T22:02:41.252Z,68.90
2022-09-07T22:05:13.628Z,68.79
2022-09-07T22:07:46.076Z,68.77
2022-09-07T22:10:18.435Z,68.69
2022-09-07T22:12:50.828Z,69.07
2022-09-07T22:15:23.163Z,69.40
2022-09-07T22:17:56.095Z,69.70
2022-09-07T22:20:28.460Z,69.76
2022-09-07T22:23:00.815Z,69.43
2022-09-07T22:25:34.735Z,69.09
2022-09-07T22:28:07.133Z,69.49
2022-09-07T22:30:39.476Z,69.48
2022-09-07T22:33:11.814Z,69.27
2022-09-07T22:35:44.199Z,70.01
2022-09-07T22:38:16.569Z,69.99
2022-09-07T22:40:48.911Z,69.85
2022-09-07T22:43:21.275Z,69.37
2022-09-07T22:45:53.607Z,69.76
2022-09-07T22:48:27.183Z,70.20
2022-09-07T22:51:00.765Z,70.27
2022-09-07T22:53:36.522Z,69.93
2022-09-07T22:56:11.858Z,69.21
2022-09-07T22:58:54.411Z,69.12
2022-09-07T23:01:28.825Z,69.12
2022-09-07T23:04:01.993Z,69.43
2022-09-07T23:06:37.636Z,69.11
2022-09-07T23:09:15.691Z,69.83
2022-09-07T23:11:48.775Z,71.01
2022-09-07T23:14:22.213Z,71.25
2022-09-07T23:16:54.684Z,71.83
2022-09-07T23:19:27.581Z,73.35
2022-09-07T23:22:00.608Z,74.34
2022-09-07T23:24:33.321Z,74.24
2022-09-07T23:27:06.580Z,74.18
2022-09-07T23:29:39.033Z,75.78
2022-09-07T23:32:11.423Z,76.17
2022-09-07T23:34:43.805Z,75.35
2022-09-07T23:37:16.177Z,76.66
2022-09-07T23:39:48.572Z,77.22
2022-09-07T23:42:21.031Z,77.94
2022-09-07T23:44:53.384Z,77.65
2022-09-07T23:47:26.480Z,77.74
2022-09-07T23:49:58.864Z,78.38
2022-09-07T23:52:31.634Z,78.76
2022-09-07T23:55:04.520Z,78.56
2022-09-07T23:57:38.212Z,78.88
